x

Central Dixon Entrance Buoy (46145) Wave Buoy

1:00am - Sat 25th Oct 2014 All times are PDT. -7 hours from GMT.

  • Sig Wave height 6.6ft
  • Peak Period 6s
  • Wind
    22mph, 27mph gusts
  • Sea Temp 52°f
  • Air Temp 50°f
  • Sea Pressure 1006.7mb
  • Central Dixon Entrance Buoy
  • Central Dixon Entrance Buoy

More Historic Weather Station data

Upgrade to MSW Pro to gain access to the past 30 days of data for over 8000 Wavebouys and Weather Stations around the globe.

Join Pro

Comparision Forecast

View Surf forecast
   
Sat 10/25 1:00am 6.5ft 6s 22 27 mph 1006.7mb 52f 50f
12:00am 6ft 7s 25 31 mph 1007.3mb 52f 50f
Fri 10/24 11:00pm 7ft 6s 25 31 mph 1007.6mb 52f 50f
10:00pm 6ft 12s 25 31 mph 1007.8mb 52f 50f
9:00pm 6ft 12s 27 31 mph 1008mb 52f 50f
8:00pm 6ft 6s 27 34 mph 1008.1mb 52f 51f
7:00pm 6.5ft 12s 27 34 mph 1008.2mb 52f 51f
6:00pm 6ft 5s 27 34 mph 1008mb 53f 51f
5:00pm 6.5ft 13s 27 31 mph 1008.2mb 53f 51f
4:00pm 7ft 6s 27 31 mph 1008.3mb 53f 52f
3:00pm 7ft 6s 27 34 mph 1008.3mb 52f 51f
2:00pm 8ft 6s 22 29 mph 1008.9mb 52f 51f
1:00pm 7ft 6s 22 29 mph 1009mb 52f 51f
12:00pm 6.5ft 6s 27 34 mph 1008.6mb 52f 51f
11:00am 6ft 6s 29 36 mph 1008.5mb 52f 51f
10:00am 7ft 11s 29 36 mph 1008.6mb 52f 51f
9:00am 6ft 11s 27 34 mph 1008.1mb 52f 51f
8:00am 5.5ft 5s 25 29 mph 1008mb 52f 51f
7:00am 6ft 6s 27 34 mph 1007.6mb 53f 51f
6:00am 7ft 6s 27 31 mph 1007.4mb 53f 50f
5:00am 7ft 6s 27 31 mph 1007mb 52f 51f
4:00am 7ft 5s 27 34 mph 1006.5mb 52f 51f
3:00am 6.5ft 6s 27 34 mph 1006.3mb 52f 51f
2:00am 6ft 12s 25 31 mph 1006.4mb 52f 51f
1:00am 6.5ft 12s 22 27 mph 1006.3mb 52f 51f
12:00am 5.5ft 12s 20 25 mph 1006.1mb 52f 51f
Thu 10/23 11:00pm 6ft 12s 20 27 mph 1005.8mb 52f 51f
10:00pm 5.5ft 10s 22 27 mph 1005mb 52f 51f
9:00pm 5ft 10s 22 27 mph 1004.6mb 52f 51f
8:00pm 5ft 13s 22 25 mph 1004.2mb 52f 50f
7:00pm 5ft 11s 22 25 mph 1003.8mb 52f 51f
6:00pm 5ft 10s 18 22 mph 1003.1mb 52f 51f
5:00pm 5ft 11s 22 27 mph 1002.8mb 52f 51f
4:00pm 4.5ft 11s 20 25 mph 1002.2mb 52f 51f
3:00pm 5ft 11s 13 18 mph 1001.8mb 52f 51f
2:00pm 4.5ft 11s 16 20 mph 1001.5mb 52f 51f
1:00pm 4.5ft 11s 16 20 mph 1001.2mb 52f 52f
12:00pm 5ft 11s 13 16 mph 1001mb 52f 50f
11:00am 4.5ft 10s 11 13 mph 1000.5mb 52f 50f
10:00am 4.5ft 10s 16 18 mph 999.7mb 52f 49f
9:00am 4.5ft 11s 16 18 mph 999.1mb 52f 49f
8:00am 4.5ft 10s 18 20 mph 998.2mb 52f 49f
7:00am 4.5ft 11s 18 20 mph 997.6mb 52f 48f
6:00am 4.5ft 11s 20 22 mph 996.7mb 52f 49f
5:00am 4.5ft 11s 18 20 mph 995.6mb 52f 50f
4:00am 5ft 12s 18 20 mph 994.5mb 52f 50f
3:00am 5.5ft 11s 18 22 mph 993.6mb 52f 50f
2:00am 7ft 12s 20 22 mph 992.9mb 52f 51f
1:00am 6.5ft 11s 20 25 mph 991.9mb 52f 51f
12:00am 7ft 11s 18 22 mph 991.6mb 52f 51f
Wed 10/22 11:00pm 7ft 12s 20 25 mph 991.3mb 52f 51f
10:00pm 7ft 6s 22 29 mph 991.3mb 52f 51f
9:00pm 8ft 11s 27 31 mph 991.2mb 52f 50f
8:00pm 7ft 12s 29 34 mph 991.5mb 52f 50f
7:00pm 6.5ft 12s 29 36 mph 991.6mb 52f 49f
6:00pm 6ft 12s 29 38 mph 991.8mb 52f 50f
5:00pm 5.5ft 12s 25 29 mph 992.4mb 52f 49f
4:00pm 5ft 12s 20 25 mph 993.2mb 52f 49f
3:00pm 6.5ft 12s 22 27 mph 993.5mb 52f 48f
2:00pm 7.5ft 13s 18 20 mph 994.4mb 52f 48f
1:00pm 7ft 13s 29 38 mph 994.1mb 52f 49f
12:00pm 7ft 12s 16 18 mph 994.5mb 52f 52f
11:00am 7ft 13s 11 13 mph 994.7mb 52f 51f
10:00am 6.5ft 13s 11 13 mph 994.7mb 52f 51f
9:00am 7ft 12s 13 16 mph 994.3mb 52f 50f
8:00am 6ft 14s 13 16 mph 993.8mb 52f 51f
7:00am 5ft 13s 18 20 mph 993.4mb 52f 50f
6:00am 5ft 14s 20 22 mph 992.7mb 52f 50f
5:00am 6ft 14s 20 22 mph 992.1mb 52f 50f
4:00am 6ft 14s 22 27 mph 991.3mb 52f 51f
3:00am 6ft 14s 25 31 mph 990.4mb 52f 51f
2:00am 6.5ft 14s 22 29 mph 989.8mb 52f 51f
1:00am 6.5ft 5s 25 29 mph 989.3mb 52f 51f
12:00am 6ft 6s 25 31 mph 989mb 52f 51f
Tue 10/21 11:00pm 5.5ft 5s 22 29 mph 988.7mb 52f 52f
10:00pm 5ft 14s 22 27 mph 987.9mb 52f 53f
9:00pm 5ft 15s 22 27 mph 987.9mb 52f 52f
8:00pm 5ft 5s 27 31 mph 987.5mb 52f 53f
7:00pm 5.5ft 5s 27 34 mph 987.9mb 52f 52f
6:00pm 6ft 5s 27 34 mph 987.9mb 52f 52f
5:00pm 6ft 5s 27 31 mph 987.8mb 52f 52f
4:00pm 6ft 6s 31 38 mph 987.5mb 52f 52f
3:00pm 7ft 6s 27 31 mph 986.2mb 52f 52f
2:00pm 8ft 6s 25 31 mph 986.4mb 52f 52f
1:00pm 7.5ft 6s 29 34 mph 985.3mb 52f 53f
12:00pm 6.5ft 6s 27 36 mph 985.2mb 52f 53f
11:00am 6ft 6s 27 36 mph 985.7mb 52f 53f
10:00am 6.5ft 6s 25 29 mph 986.6mb 52f 53f